Time;durP1;ratioP1;P1;durP2;ratioP2;P2;SDS_P1;SDS_P2;PMS_P1;PMS_P2;Temp;Humidity;BMP_temperature;BMP_pressure;BME280_temperature;BME280_humidity;BME280_pressure;Samples;Min_cycle;Max_cycle;Signal;HPM_P1;HPM_P2
2022/09/28 00:01:55;;;;;;;67.00;59.95;;;;;;;11.98;81.28;97653.19;5092511;28;20024;-47
2022/09/28 00:04:21;;;;;;;25.08;22.48;;;;;;;12.04;80.99;97654.09;5092480;28;20024;-47
2022/09/28 00:06:47;;;;;;;41.35;34.33;;;;;;;12.08;80.48;97648.13;5091388;28;20402;-47
2022/09/28 00:09:16;;;;;;;30.60;27.30;;;;;;;12.15;78.23;97645.34;5092380;28;20043;-47
2022/09/28 00:11:42;;;;;;;22.35;19.25;;;;;;;12.18;78.36;97637.78;5109106;28;20452;-48
2022/09/28 00:14:10;;;;;;;8.25;4.05;;;;;;;12.23;78.20;97631.81;5093821;28;20024;-47
2022/09/28 00:16:39;;;;;;;20.98;18.75;;;;;;;12.26;77.71;97631.34;5093437;28;20494;-47
2022/09/28 00:19:07;;;;;;;20.95;18.67;;;;;;;12.27;78.97;97616.34;5092162;28;20024;-47
2022/09/28 00:21:35;;;;;;;5.28;3.92;;;;;;;12.33;78.15;97605.66;5092180;28;20066;-48
2022/09/28 00:24:12;;;;;;;10.77;4.00;;;;;;;12.34;78.51;97598.59;5093321;28;20077;-47
2022/09/28 00:26:44;;;;;;;887.72;115.65;;;;;;;12.35;78.41;97589.66;5093428;28;20058;-48
2022/09/28 00:29:33;;;;;;;5.22;1.83;;;;;;;12.40;79.01;97592.38;5093272;28;20035;-48
2022/09/28 00:32:08;;;;;;;4.95;1.52;;;;;;;12.41;78.22;97583.44;5091902;28;20367;-48
2022/09/28 00:34:37;;;;;;;5.78;1.60;;;;;;;12.51;77.86;97594.13;5091962;28;20028;-47
2022/09/28 00:37:04;;;;;;;4.65;1.88;;;;;;;12.59;77.03;97588.44;5093078;28;20095;-48
2022/09/28 00:39:30;;;;;;;2.60;1.10;;;;;;;12.73;76.63;97583.66;5093180;28;20032;-48
2022/09/28 00:41:56;;;;;;;5.65;1.50;;;;;;;12.85;77.93;97591.47;5092969;28;20565;-48
2022/09/28 00:44:25;;;;;;;8.73;3.70;;;;;;;12.92;77.46;97586.84;5091752;28;20028;-48
2022/09/28 00:47:34;;;;;;;4.63;1.52;;;;;;;13.12;77.25;97586.31;5092994;28;20103;-48
2022/09/28 00:50:36;;;;;;;2.92;0.98;;;;;;;13.28;76.58;97582.03;5092966;28;20032;-48
2022/09/28 00:53:19;;;;;;;2.72;1.23;;;;;;;13.35;75.25;97572.13;5014162;28;20068;-48
2022/09/28 00:55:51;;;;;;;6.00;1.52;;;;;;;13.42;72.42;97553.50;5030488;28;20110;-47
2022/09/28 00:58:28;;;;;;;7.38;1.15;;;;;;;13.55;72.48;97562.88;5030332;28;20030;-48
2022/09/28 01:00:58;;;;;;;5.13;1.25;;;;;;;13.72;71.74;97553.03;5030421;28;20052;-48
2022/09/28 01:03:26;;;;;;;3.60;0.80;;;;;;;13.85;71.40;97556.31;5030319;28;20108;-48
2022/09/28 01:05:53;;;;;;;4.70;1.25;;;;;;;13.83;71.17;97555.78;5030267;28;20619;-48
2022/09/28 01:08:21;;;;;;;7.00;1.50;;;;;;;13.83;71.28;97553.13;4997269;28;20116;-47
2022/09/28 01:10:47;;;;;;;3.97;1.30;;;;;;;13.95;72.31;97557.22;5030209;28;20084;-47
2022/09/28 01:13:14;;;;;;;7.82;1.08;;;;;;;14.09;72.88;97547.03;5029836;28;20523;-48
2022/09/28 01:15:59;;;;;;;2.90;1.05;;;;;;;14.22;73.33;97545.81;5030117;28;20029;-48
2022/09/28 01:18:32;;;;;;;4.60;1.15;;;;;;;14.39;73.19;97532.50;5030001;28;20116;-47
2022/09/28 01:21:12;;;;;;;7.05;1.70;;;;;;;14.44;72.21;97537.81;5013436;28;20033;-47
2022/09/28 01:23:43;;;;;;;4.93;1.10;;;;;;;14.49;73.93;97523.88;5030152;28;20207;-47
2022/09/28 01:26:32;;;;;;;5.88;1.20;;;;;;;14.51;73.64;97527.84;5039686;28;20051;-48
2022/09/28 01:29:06;;;;;;;2.85;1.00;;;;;;;14.46;73.84;97521.72;5091056;28;20032;-47
2022/09/28 01:31:35;;;;;;;4.05;1.02;;;;;;;14.48;72.06;97512.50;5091056;28;20032;-47
2022/09/28 01:34:17;;;;;;;5.00;1.10;;;;;;;14.54;70.96;97518.59;5090871;28;20054;-47
2022/09/28 01:36:49;;;;;;;4.72;0.95;;;;;;;14.55;71.52;97514.94;5092302;28;20110;-47
2022/09/28 01:39:38;;;;;;;4.82;1.75;;;;;;;14.63;72.09;97511.03;5092243;28;20447;-47
2022/09/28 01:42:15;;;;;;;2.60;0.80;;;;;;;14.73;69.50;97489.97;5092146;28;20405;-48
2022/09/28 01:44:44;;;;;;;3.92;0.82;;;;;;;14.81;68.92;97486.84;5092179;28;20482;-47
2022/09/28 01:47:14;;;;;;;3.10;0.77;;;;;;;14.83;68.51;97489.22;5092515;28;20024;-47
2022/09/28 01:49:45;;;;;;;3.38;0.63;;;;;;;14.80;69.38;97492.38;5073998;28;20498;-47
2022/09/28 01:52:44;;;;;;;4.07;0.70;;;;;;;14.80;71.18;97469.41;5090676;28;20028;-47
2022/09/28 01:55:18;;;;;;;1.85;0.68;;;;;;;15.02;72.26;97479.78;5091595;28;20040;-47
2022/09/28 01:57:56;;;;;;;5.05;0.85;;;;;;;15.24;69.59;97476.16;5091955;28;20119;-47
2022/09/28 02:00:24;;;;;;;1.58;0.70;;;;;;;15.36;69.28;97474.88;5091865;28;20034;-47
2022/09/28 02:03:13;;;;;;;2.95;0.80;;;;;;;15.41;68.32;97470.66;5091879;28;20024;-47
2022/09/28 02:05:42;;;;;;;4.50;1.00;;;;;;;15.40;67.38;97464.56;5091887;28;20065;-48
2022/09/28 02:08:25;;;;;;;5.25;0.85;;;;;;;15.46;67.15;97468.03;5091787;28;20026;-47
2022/09/28 02:10:55;;;;;;;3.80;0.90;;;;;;;15.50;68.25;97464.59;5091830;28;20028;-47
2022/09/28 02:13:26;;;;;;;4.18;1.08;;;;;;;15.56;67.56;97452.97;5091127;28;20079;-48
2022/09/28 02:16:09;;;;;;;4.03;1.00;;;;;;;15.71;67.65;97448.75;5092299;28;20028;-47
2022/09/28 02:18:35;;;;;;;5.13;1.73;;;;;;;15.82;68.64;97455.66;5091781;28;20021;-46
2022/09/28 02:21:39;;;;;;;7.47;1.42;;;;;;;15.98;67.80;97438.72;5091953;28;20031;-46
2022/09/28 02:24:22;;;;;;;2.50;0.80;;;;;;;16.04;64.65;97444.81;5061892;28;20213;-46
2022/09/28 02:26:50;;;;;;;5.78;0.65;;;;;;;15.95;64.10;97435.81;5091646;28;20088;-46
2022/09/28 02:29:15;;;;;;;4.80;0.70;;;;;;;15.84;62.14;97426.31;5090277;28;20028;-46
2022/09/28 02:31:41;;;;;;;3.50;1.08;;;;;;;15.72;61.95;97427.34;5094776;28;20026;-46
2022/09/28 02:34:08;;;;;;;3.80;0.63;;;;;;;15.65;63.92;97420.69;5095455;28;20113;-46
2022/09/28 02:36:34;;;;;;;1.95;0.70;;;;;;;15.65;63.47;97418.06;5095484;28;20016;-46
2022/09/28 02:39:01;;;;;;;5.82;1.23;;;;;;;15.58;63.19;97408.53;5095436;28;20020;-46
2022/09/28 02:41:48;;;;;;;2.85;0.73;;;;;;;15.58;63.50;97416.47;5095629;28;20020;-46
2022/09/28 02:44:38;;;;;;;1.27;0.50;;;;;;;15.57;62.84;97414.91;5095657;28;20119;-46
2022/09/28 02:47:27;;;;;;;1.33;0.40;;;;;;;15.62;61.36;97400.88;5094056;28;20039;-46
2022/09/28 02:50:12;;;;;;;5.97;0.73;;;;;;;15.58;61.40;97415.69;5095280;28;20028;-46
2022/09/28 02:52:53;;;;;;;2.35;0.55;;;;;;;15.48;62.14;97407.75;5095210;28;20039;-46
2022/09/28 02:55:56;;;;;;;1.80;0.52;;;;;;;15.47;61.83;97408.78;5095102;28;20112;-46
2022/09/28 02:58:28;;;;;;;5.05;0.52;;;;;;;15.48;60.89;97407.75;5095053;28;20024;-46
2022/09/28 03:01:19;;;;;;;3.42;0.70;;;;;;;15.34;61.83;97402.97;5094977;28;20402;-46
2022/09/28 03:03:52;;;;;;;3.35;0.68;;;;;;;15.30;61.23;97399.25;5095068;28;20028;-46
2022/09/28 03:06:36;;;;;;;4.15;0.80;;;;;;;15.36;62.44;97400.06;5093664;28;20117;-48
2022/09/28 03:09:34;;;;;;;3.40;1.23;;;;;;;15.37;62.04;97406.91;5094953;28;20499;-48
2022/09/28 03:12:09;;;;;;;6.72;0.63;;;;;;;15.41;60.22;97402.69;5082215;28;20095;-48
2022/09/28 03:14:34;;;;;;;5.90;1.00;;;;;;;15.33;60.92;97380.25;5094734;28;20083;-48
2022/09/28 03:17:00;;;;;;;1.35;0.93;;;;;;;15.41;61.56;97397.41;5094992;28;20089;-46
2022/09/28 03:19:31;;;;;;;2.10;0.93;;;;;;;15.13;63.13;97401.34;5093416;28;20043;-46
2022/09/28 03:21:57;;;;;;;2.97;0.95;;;;;;;14.84;63.92;97411.56;5094714;28;20032;-46
2022/09/28 03:24:23;;;;;;;5.28;0.90;;;;;;;14.69;63.64;97391.97;5094633;28;20032;-46
2022/09/28 03:26:49;;;;;;;2.15;0.68;;;;;;;14.82;62.66;97393.34;5094541;28;20103;-46
2022/09/28 03:29:14;;;;;;;10.48;0.80;;;;;;;14.86;62.58;97390.97;5093217;28;20414;-46
2022/09/28 03:31:40;;;;;;;5.93;1.48;;;;;;;14.91;63.41;97415.56;5094466;28;20024;-46
2022/09/28 03:34:06;;;;;;;2.92;0.70;;;;;;;15.11;63.38;97404.25;5094343;28;20032;-48
2022/09/28 03:36:31;;;;;;;3.67;0.73;;;;;;;14.96;62.94;97406.84;5094400;28;20095;-47
2022/09/28 03:38:58;;;;;;;5.82;0.90;;;;;;;14.81;63.39;97383.03;5094575;28;20167;-48
2022/09/28 03:41:26;;;;;;;5.57;0.90;;;;;;;14.78;63.41;97369.28;5092955;28;20032;-47
2022/09/28 03:43:52;;;;;;;6.30;0.88;;;;;;;14.89;62.30;97369.31;5094198;28;20252;-48
2022/09/28 03:46:18;;;;;;;3.08;0.98;;;;;;;15.02;61.57;97360.91;5094213;28;20027;-48
2022/09/28 03:48:44;;;;;;;2.78;0.70;;;;;;;15.08;61.65;97367.78;5094162;28;20020;-48
2022/09/28 03:51:11;;;;;;;3.78;1.20;;;;;;;15.16;61.62;97369.13;5092763;28;20085;-47
2022/09/28 03:53:37;;;;;;;3.20;0.85;;;;;;;15.24;61.37;97358.03;5094253;28;20024;-47
2022/09/28 03:56:12;;;;;;;1.60;0.60;;;;;;;15.20;61.26;97356.16;5092663;28;20402;-47
2022/09/28 03:58:38;;;;;;;3.25;0.73;;;;;;;15.03;63.88;97357.22;5094012;28;20024;-48
2022/09/28 04:01:11;;;;;;;9.48;1.45;;;;;;;14.62;65.64;97375.56;5093924;28;20020;-47
2022/09/28 04:03:37;;;;;;;3.35;1.85;;;;;;;14.31;66.45;97348.25;5093865;28;20368;-48
2022/09/28 04:06:02;;;;;;;4.95;0.93;;;;;;;14.15;67.94;97350.78;5093768;28;20648;-47
2022/09/28 04:08:28;;;;;;;6.60;1.17;;;;;;;14.12;67.80;97347.88;5093768;28;20028;-48
2022/09/28 04:10:58;;;;;;;4.45;0.88;;;;;;;14.09;66.64;97330.72;5093667;28;20028;-48
2022/09/28 04:13:25;;;;;;;2.88;0.90;;;;;;;14.05;66.91;97334.91;5093354;28;20040;-48
2022/09/28 04:15:55;;;;;;;7.43;1.10;;;;;;;14.00;67.83;97337.50;5093577;28;20031;-48
2022/09/28 04:18:22;;;;;;;26.23;1.08;;;;;;;14.03;67.31;97329.09;5093571;28;20028;-48
2022/09/28 04:21:07;;;;;;;3.40;0.95;;;;;;;13.93;68.80;97310.59;5093498;28;20021;-48
2022/09/28 04:23:36;;;;;;;2.65;0.85;;;;;;;13.89;68.05;97333.25;5093548;28;20028;-48
2022/09/28 04:26:03;;;;;;;5.90;1.00;;;;;;;13.77;70.17;97350.03;5092033;28;20453;-48
2022/09/28 04:31:19;;;;;;;1.85;0.63;;;;;;;13.64;71.08;97358.38;5093607;28;20077;-47
2022/09/28 04:33:45;;;;;;;2.85;0.80;;;;;;;13.56;70.76;97330.66;5093274;28;20028;-47
2022/09/28 04:36:10;;;;;;;8.38;1.92;;;;;;;13.36;73.82;97364.75;5093207;28;20482;-47
2022/09/28 04:38:37;;;;;;;1.63;0.57;;;;;;;13.36;73.38;97376.09;5093164;28;20028;-47
2022/09/28 04:41:04;;;;;;;3.92;0.82;;;;;;;13.28;73.65;97334.38;5093094;28;20102;-47
2022/09/28 04:43:30;;;;;;;3.42;0.82;;;;;;;13.29;73.97;97327.25;5093102;28;20024;-47
2022/09/28 04:46:00;;;;;;;5.85;1.13;;;;;;;13.25;74.27;97326.94;5093256;28;20027;-47
2022/09/28 04:48:26;;;;;;;2.20;0.65;;;;;;;13.21;73.59;97317.97;5091619;28;20031;-47
2022/09/28 04:50:57;;;;;;;4.03;0.68;;;;;;;13.20;74.06;97334.81;5092879;28;20020;-47
2022/09/28 04:53:24;;;;;;;4.30;0.60;;;;;;;13.19;74.36;97304.25;5092403;28;20506;-47
2022/09/28 04:56:11;;;;;;;5.25;0.80;;;;;;;13.15;75.01;97313.69;5091456;28;20027;-45
2022/09/28 04:58:37;;;;;;;3.67;0.65;;;;;;;13.03;76.54;97324.38;5091413;28;20452;-45
2022/09/28 05:01:10;;;;;;;3.17;0.70;;;;;;;12.97;76.86;97325.38;5092705;28;20042;-45
2022/09/28 05:03:35;;;;;;;2.50;0.70;;;;;;;13.01;77.58;97330.94;5091420;28;20196;-46
2022/09/28 05:06:01;;;;;;;5.68;1.35;;;;;;;13.14;76.53;97331.34;5091315;28;20078;-46
2022/09/28 05:08:27;;;;;;;7.50;1.77;;;;;;;13.28;75.99;97336.19;5092652;28;20055;-46
2022/09/28 05:11:04;;;;;;;1.67;0.70;;;;;;;13.43;74.01;97317.91;5091277;28;20077;-46
2022/09/28 05:13:34;;;;;;;5.82;0.77;;;;;;;13.51;73.89;97316.66;5091022;28;20052;-48
2022/09/28 05:16:00;;;;;;;2.22;0.80;;;;;;;13.69;72.40;97326.78;5092414;28;20024;-47
2022/09/28 05:18:26;;;;;;;1.90;0.70;;;;;;;13.78;72.90;97330.53;5074282;28;20031;-46
2022/09/28 05:20:51;;;;;;;0.50;0.40;;;;;;;13.87;72.70;97322.94;5092645;28;20020;-46
2022/09/28 05:23:17;;;;;;;4.68;0.80;;;;;;;13.95;70.90;97335.66;5092433;28;20107;-46
2022/09/28 05:25:44;;;;;;;4.38;0.65;;;;;;;14.01;70.72;97325.91;5092332;28;20107;-46
2022/09/28 05:28:11;;;;;;;7.38;1.20;;;;;;;14.04;71.24;97325.41;5092280;28;20020;-46
2022/09/28 05:30:38;;;;;;;5.28;1.00;;;;;;;14.12;70.95;97319.63;5092245;28;20031;-46
2022/09/28 05:33:04;;;;;;;5.57;0.93;;;;;;;14.20;70.90;97318.34;5092196;28;20028;-46
2022/09/28 05:35:30;;;;;;;3.85;0.70;;;;;;;14.34;70.23;97327.38;5090766;28;20027;-46
2022/09/28 05:38:01;;;;;;;2.85;0.73;;;;;;;14.41;70.36;97319.25;5092079;28;20034;-46
2022/09/28 05:40:27;;;;;;;2.90;0.70;;;;;;;14.42;69.91;97323.47;5090808;28;20519;-46
2022/09/28 05:42:57;;;;;;;1.65;0.65;;;;;;;14.49;68.90;97323.25;5092100;28;20024;-46
2022/09/28 05:45:23;;;;;;;3.20;0.60;;;;;;;14.48;70.04;97305.78;5092159;28;20103;-46
2022/09/28 05:47:50;;;;;;;3.17;0.68;;;;;;;14.55;69.71;97354.66;5092000;28;20145;-46
2022/09/28 05:50:16;;;;;;;1.48;0.50;;;;;;;14.69;69.02;97325.16;5091973;28;20016;-46
2022/09/28 05:52:42;;;;;;;2.53;0.60;;;;;;;14.76;68.74;97329.13;5090697;28;20456;-46
2022/09/28 05:55:09;;;;;;;2.25;0.70;;;;;;;14.79;67.90;97333.13;5091874;28;20078;-46
2022/09/28 05:57:34;;;;;;;2.92;0.57;;;;;;;14.77;68.84;97314.09;5090659;28;20024;-46
2022/09/28 06:00:00;;;;;;;2.08;0.60;;;;;;;14.88;67.52;97322.84;5091834;28;20385;-47
2022/09/28 06:02:26;;;;;;;5.90;0.60;;;;;;;14.90;67.36;97332.06;5090578;28;20501;-47
2022/09/28 06:04:52;;;;;;;2.65;0.70;;;;;;;14.93;67.34;97328.91;5090703;28;20078;-46
2022/09/28 06:07:19;;;;;;;3.25;0.60;;;;;;;14.94;67.53;97319.13;5096018;28;20020;-46
2022/09/28 06:09:45;;;;;;;3.33;0.45;;;;;;;15.05;66.43;97341.06;5095977;28;20044;-46
2022/09/28 06:12:11;;;;;;;3.33;0.90;;;;;;;15.08;67.74;97322.84;5094469;28;20082;-46
2022/09/28 06:14:37;;;;;;;2.55;0.73;;;;;;;15.28;66.43;97311.50;5096211;28;20024;-46
2022/09/28 06:17:03;;;;;;;2.90;0.60;;;;;;;15.37;65.93;97311.75;5095839;28;20031;-48
2022/09/28 06:19:29;;;;;;;2.47;1.00;;;;;;;15.42;65.28;97327.63;5095886;28;20024;-46
2022/09/28 06:21:55;;;;;;;4.57;0.80;;;;;;;15.41;66.27;97323.38;5095879;28;20028;-46
2022/09/28 06:24:21;;;;;;;2.97;0.60;;;;;;;15.50;65.85;97328.94;5095901;28;20028;-46
2022/09/28 06:26:46;;;;;;;4.22;3.78;;;;;;;15.63;66.24;97314.38;5095699;28;20020;-46
2022/09/28 06:29:18;;;;;;;2.10;0.93;;;;;;;15.73;65.22;97328.41;5095706;28;20390;-46
2022/09/28 06:31:44;;;;;;;3.03;0.80;;;;;;;15.88;62.90;97303.78;5095676;28;20555;-46
2022/09/28 06:34:11;;;;;;;2.33;0.75;;;;;;;15.93;63.01;97324.16;5094221;28;20028;-46
2022/09/28 06:36:37;;;;;;;7.35;0.55;;;;;;;15.94;62.56;97304.59;5095500;28;20031;-48
2022/09/28 06:39:03;;;;;;;0.77;0.40;;;;;;;15.93;62.48;97295.03;5095471;28;20024;-46
2022/09/28 06:41:29;;;;;;;2.90;0.57;;;;;;;16.03;61.96;97310.09;5095696;28;20031;-48
2022/09/28 06:43:55;;;;;;;4.53;0.43;;;;;;;16.05;62.08;97295.53;5095463;28;20107;-46
2022/09/28 06:46:21;;;;;;;4.25;0.50;;;;;;;16.03;62.57;97291.59;5095363;28;20023;-46
2022/09/28 06:48:47;;;;;;;3.17;0.77;;;;;;;16.12;62.09;97288.13;5095284;28;20038;-46
2022/09/28 06:51:13;;;;;;;1.60;0.55;;;;;;;16.31;61.76;97303.38;5094082;28;20012;-48
2022/09/28 06:53:39;;;;;;;0.43;0.30;;;;;;;16.41;60.64;97307.84;5095135;28;20073;-46
2022/09/28 06:56:09;;;;;;;2.60;0.60;;;;;;;16.42;60.41;97320.81;5095129;28;20024;-46
2022/09/28 06:58:35;;;;;;;3.72;0.80;;;;;;;16.46;60.41;97311.28;5095169;28;20031;-47
2022/09/28 07:01:04;;;;;;;4.18;0.68;;;;;;;16.53;59.01;97321.56;5095067;28;20020;-46
2022/09/28 07:03:33;;;;;;;2.13;0.60;;;;;;;16.48;59.33;97298.56;5095110;28;20028;-47
2022/09/28 07:05:58;;;;;;;3.60;0.50;;;;;;;16.52;59.03;97310.19;5095061;28;20453;-47
2022/09/28 07:08:25;;;;;;;1.83;0.77;;;;;;;16.52;59.35;97312.03;5094953;28;20106;-46
2022/09/28 07:10:55;;;;;;;1.95;0.57;;;;;;;16.56;59.19;97297.19;5093537;28;20024;-48
2022/09/28 07:13:29;;;;;;;1.80;0.45;;;;;;;16.64;58.97;97298.47;5094648;28;20036;-48
2022/09/28 07:15:56;;;;;;;2.40;0.60;;;;;;;16.63;58.67;97313.56;5094359;28;20039;-46
2022/09/28 07:18:22;;;;;;;4.95;0.73;;;;;;;16.63;58.92;97332.09;5093452;28;20498;-48
2022/09/28 07:20:48;;;;;;;4.78;0.60;;;;;;;16.63;58.98;97312.78;5093333;28;20030;-48
2022/09/28 07:23:14;;;;;;;28.75;1.58;;;;;;;16.75;58.72;97310.59;5093354;28;20028;-48
2022/09/28 07:25:44;;;;;;;2.30;0.60;;;;;;;16.87;58.23;97311.06;5093256;28;20066;-48
2022/09/28 07:28:11;;;;;;;3.30;0.70;;;;;;;16.99;58.19;97296.69;5094535;28;20089;-48
2022/09/28 07:30:37;;;;;;;2.00;0.63;;;;;;;17.10;58.03;97306.13;5094515;28;20028;-48
2022/09/28 07:33:05;;;;;;;2.15;0.40;;;;;;;17.24;57.68;97322.22;5094510;28;20024;-49
2022/09/28 07:35:34;;;;;;;1.58;0.52;;;;;;;17.20;57.04;97316.66;5094345;28;20056;-48
2022/09/28 07:38:05;;;;;;;3.72;0.82;;;;;;;17.14;57.76;97331.84;5094397;28;20020;-46
2022/09/28 07:43:21;;;;;;;1.63;0.38;;;;;;;17.30;57.36;97332.50;5094638;28;20043;-46
2022/09/28 07:45:53;;;;;;;3.75;0.82;;;;;;;17.44;57.86;97331.88;5092920;28;20028;-46
2022/09/28 07:48:20;;;;;;;0.77;0.40;;;;;;;17.62;56.80;97339.13;5094264;28;20154;-45
2022/09/28 07:50:55;;;;;;;2.72;0.70;;;;;;;17.69;56.87;97349.44;5092738;28;20023;-46
2022/09/28 07:53:23;;;;;;;2.63;0.80;;;;;;;17.79;57.08;97354.66;5094022;28;20027;-46
2022/09/28 07:56:05;;;;;;;3.30;0.75;;;;;;;17.90;58.89;97347.41;5094116;28;20481;-46
2022/09/28 07:58:31;;;;;;;5.85;1.00;;;;;;;17.64;59.01;97341.50;5094261;28;20028;-44
2022/09/28 08:00:59;;;;;;;2.00;0.82;;;;;;;17.38;59.18;97344.38;5093790;28;20579;-44
2022/09/28 08:03:26;;;;;;;1.80;0.60;;;;;;;17.35;59.61;97337.78;5093888;28;20089;-44
2022/09/28 08:05:57;;;;;;;2.42;0.93;;;;;;;17.58;59.66;97340.75;5093841;28;20032;-44
2022/09/28 08:08:23;;;;;;;2.17;0.60;;;;;;;17.75;58.22;97341.16;5094061;28;20126;-46
2022/09/28 08:10:51;;;;;;;1.85;0.73;;;;;;;17.78;57.61;97345.88;5093686;28;20537;-44
2022/09/28 08:13:18;;;;;;;4.30;1.30;;;;;;;17.74;58.50;97342.22;5093384;28;20097;-46
2022/09/28 08:15:50;;;;;;;3.35;0.85;;;;;;;17.75;58.23;97335.84;5093449;28;20024;-46
2022/09/28 08:18:16;;;;;;;3.25;0.88;;;;;;;17.91;57.95;97341.03;5092341;28;20639;-46
2022/09/28 08:23:30;;;;;;;2.88;0.80;;;;;;;18.33;56.50;97331.53;5093594;28;20061;-46
2022/09/28 08:25:55;;;;;;;3.05;0.80;;;;;;;18.39;56.17;97342.91;5093461;28;20103;-46
2022/09/28 08:28:22;;;;;;;2.85;0.68;;;;;;;18.28;57.53;97342.22;5092575;28;20103;-46
2022/09/28 08:30:49;;;;;;;2.50;0.57;;;;;;;17.88;60.07;97339.72;5093324;28;20368;-45
2022/09/28 08:33:17;;;;;;;2.08;0.70;;;;;;;17.30;62.57;97339.66;5093580;28;20020;-44
2022/09/28 08:35:45;;;;;;;5.93;0.90;;;;;;;17.06;63.77;97340.34;5093446;28;20024;-44
2022/09/28 08:38:12;;;;;;;1.65;0.75;;;;;;;17.17;63.92;97357.00;5093199;28;20043;-44
2022/09/28 08:41:04;;;;;;;3.22;0.82;;;;;;;17.48;62.82;97354.13;5093036;28;20032;-46
2022/09/28 08:43:44;;;;;;;2.15;0.82;;;;;;;17.89;61.38;97345.84;5091293;28;20505;-46
2022/09/28 08:46:14;;;;;;;14.80;1.17;;;;;;;18.41;60.17;97335.44;5093057;28;20024;-44
2022/09/28 08:49:12;;;;;;;6.72;0.85;;;;;;;18.81;59.08;97334.13;5092766;28;20123;-45
2022/09/28 08:51:54;;;;;;;2.90;0.77;;;;;;;19.10;57.99;97339.31;5085532;28;20040;-45
2022/09/28 08:54:24;;;;;;;4.35;0.82;;;;;;;19.22;55.54;97343.44;5092891;28;20035;-44
2022/09/28 08:56:58;;;;;;;3.78;1.25;;;;;;;19.73;55.49;97338.06;5092788;28;20023;-46
2022/09/28 08:59:42;;;;;;;2.30;1.00;;;;;;;20.67;52.31;97333.38;5092832;28;20431;-46
2022/09/28 09:02:28;;;;;;;2.78;0.93;;;;;;;20.89;51.15;97329.97;5092829;28;20024;-46
2022/09/28 09:04:54;;;;;;;;;;;;;;;21.01;51.69;97323.34;5093165;28;20035;-46
2022/09/28 09:07:57;;;;;;;3.72;0.88;;;;;;;21.13;51.13;97316.34;5092880;28;19915;-44
2022/09/28 09:11:13;;;;;;;4.53;0.90;;;;;;;21.98;49.77;97310.25;5092911;28;20397;-46
2022/09/28 09:13:59;;;;;;;2.70;1.27;;;;;;;22.49;47.58;97321.44;5029761;28;20107;-45
2022/09/28 09:17:01;;;;;;;1.35;0.80;;;;;;;23.79;45.78;97306.47;5030239;28;20026;-46
2022/09/28 09:19:52;;;;;;;1.83;0.70;;;;;;;24.35;42.01;97307.16;5030116;28;20050;-46
2022/09/28 09:22:39;;;;;;;7.95;1.15;;;;;;;23.20;44.58;97301.66;5030095;28;20043;-46
2022/09/28 09:25:27;;;;;;;2.17;0.55;;;;;;;22.57;44.88;97303.84;5029916;28;20033;-45
2022/09/28 09:28:34;;;;;;;3.60;0.63;;;;;;;21.93;46.90;97305.03;5029896;28;20037;-44
2022/09/28 09:31:14;;;;;;;2.45;0.65;;;;;;;21.81;47.87;97302.97;5029794;28;20033;-44
2022/09/28 09:34:01;;;;;;;2.67;0.70;;;;;;;21.93;46.64;97283.69;5029789;28;20041;-46
2022/09/28 09:37:07;;;;;;;5.47;0.90;;;;;;;22.13;47.12;97288.47;5029912;28;20092;-46
2022/09/28 09:40:03;;;;;;;5.07;1.02;;;;;;;22.59;45.51;97301.66;5029861;28;20574;-46
2022/09/28 09:42:46;;;;;;;2.35;1.10;;;;;;;22.78;45.17;97286.09;5029795;28;20048;-45
2022/09/28 09:45:44;;;;;;;1.52;0.80;;;;;;;22.59;44.16;97291.72;5029830;28;20029;-47
2022/09/28 09:48:30;;;;;;;2.45;0.60;;;;;;;22.06;45.67;97288.13;5079869;28;20467;-45
2022/09/28 09:51:22;;;;;;;2.35;0.70;;;;;;;21.75;46.61;97293.50;5092036;28;20024;-44
2022/09/28 09:54:00;;;;;;;2.60;0.40;;;;;;;21.38;46.98;97281.34;5092186;28;20389;-45
2022/09/28 09:56:44;;;;;;;15.30;1.17;;;;;;;20.93;48.69;97282.16;5091990;28;20115;-46
2022/09/28 09:59:20;;;;;;;10.73;0.98;;;;;;;20.63;49.47;97275.63;5092010;28;20024;-45
2022/09/28 10:01:46;;;;;;;4.15;1.48;;;;;;;20.41;49.61;97266.47;5091889;28;20036;-45
2022/09/28 10:04:19;;;;;;;1.77;0.80;;;;;;;20.28;50.50;97276.06;5091624;28;20040;-45
2022/09/28 10:06:51;;;;;;;3.40;0.40;;;;;;;20.25;50.48;97281.19;5091861;28;20024;-45
2022/09/28 10:13:29;;;;;;;1.52;0.43;;;;;;;20.09;50.48;97268.19;5021455;28;20057;-45
2022/09/28 10:19:42;;;;;;;5.40;0.70;;;;;;;20.04;51.15;97260.31;4988005;28;20039;-45
2022/09/28 10:25:29;;;;;;;0.98;0.50;;;;;;;20.19;51.27;97269.06;4979850;28;20590;-45
2022/09/28 10:27:57;;;;;;;;;;;;;;;20.34;50.90;97252.75;4990486;28;20034;-45
2022/09/28 10:30:24;;;;;;;2.47;0.55;;;;;;;20.39;50.10;97251.88;4989884;28;19949;-45
2022/09/28 10:32:54;;;;;;;1.67;0.50;;;;;;;20.60;49.84;97263.69;4989966;28;20027;-46
2022/09/28 10:35:24;;;;;;;2.20;0.50;;;;;;;20.99;49.15;97248.94;4989695;28;20038;-47
2022/09/28 10:38:00;;;;;;;1.05;0.55;;;;;;;21.51;47.97;97251.94;4989855;28;20464;-46
2022/09/28 10:40:31;;;;;;;1.35;0.60;;;;;;;21.56;47.76;97261.69;4973605;28;20049;-46
2022/09/28 10:43:02;;;;;;;1.33;0.98;;;;;;;21.55;48.29;97249.47;4989779;28;20062;-46
2022/09/28 10:45:34;;;;;;;2.50;1.02;;;;;;;21.61;48.34;97247.41;4989820;28;20081;-47
2022/09/28 10:48:02;;;;;;;1.63;0.60;;;;;;;21.65;47.76;97249.19;4995735;28;20036;-47
2022/09/28 10:50:29;;;;;;;1.77;0.47;;;;;;;21.66;47.64;97240.06;5048880;28;20534;-46
2022/09/28 10:53:10;;;;;;;2.05;0.60;;;;;;;21.39;47.81;97246.38;5035643;28;20104;-46
2022/09/28 10:55:36;;;;;;;1.35;0.50;;;;;;;20.94;48.42;97233.81;5066665;28;20210;-46
2022/09/28 10:58:25;;;;;;;2.30;0.43;;;;;;;20.63;49.71;97233.75;5093885;28;20020;-46
2022/09/28 11:00:52;;;;;;;2.88;0.70;;;;;;;20.58;49.80;97233.06;5093820;28;20028;-47
2022/09/28 11:03:22;;;;;;;5.72;1.08;;;;;;;20.66;50.23;97217.16;5095103;28;20047;-46
2022/09/28 11:06:01;;;;;;;1.52;0.60;;;;;;;21.03;49.74;97211.78;5095116;28;20032;-47
2022/09/28 11:08:30;;;;;;;1.40;0.70;;;;;;;21.56;49.03;97212.88;5076811;28;20028;-47
2022/09/28 11:11:12;;;;;;;4.85;0.60;;;;;;;22.35;47.08;97206.63;5093587;28;20090;-46
2022/09/28 11:13:47;;;;;;;1.50;0.50;;;;;;;22.65;45.14;97206.78;5094508;28;20051;-47
2022/09/28 11:16:22;;;;;;;2.35;0.52;;;;;;;22.25;45.09;97213.06;5095221;28;20048;-47
2022/09/28 11:18:48;;;;;;;;;;;;;;;21.92;45.73;97194.75;5093997;28;20399;-47
2022/09/28 11:21:17;;;;;;;1.23;0.40;;;;;;;21.73;46.17;97204.91;5094764;28;19915;-47
2022/09/28 11:24:05;;;;;;;9.35;0.93;;;;;;;21.65;46.78;97209.13;5094986;28;20028;-45
2022/09/28 11:26:37;;;;;;;8.13;0.95;;;;;;;22.27;46.33;97186.03;5094555;28;20016;-44
2022/09/28 11:29:06;;;;;;;1.05;0.50;;;;;;;22.92;44.83;97189.63;5094624;28;20097;-47
2022/09/28 11:31:34;;;;;;;1.83;0.50;;;;;;;23.28;43.72;97186.56;5094559;28;20493;-47
2022/09/28 11:34:14;;;;;;;0.98;0.52;;;;;;;23.20;43.11;97186.59;5094427;28;20024;-47
2022/09/28 11:37:01;;;;;;;3.25;0.90;;;;;;;22.79;44.21;97186.00;5093166;28;20028;-47
2022/09/28 11:39:33;;;;;;;1.20;0.32;;;;;;;22.53;45.09;97175.34;5094494;28;20709;-47
2022/09/28 11:42:22;;;;;;;5.80;0.70;;;;;;;22.74;45.02;97176.28;5094372;28;20058;-46
2022/09/28 11:44:52;;;;;;;3.53;0.60;;;;;;;23.15;43.04;97181.41;5094361;28;20028;-47
2022/09/28 11:47:33;;;;;;;2.22;0.60;;;;;;;23.64;43.11;97171.94;5093120;28;20107;-46
2022/09/28 11:50:23;;;;;;;2.05;0.47;;;;;;;24.54;40.51;97175.31;5092902;28;20630;-47
2022/09/28 11:52:56;;;;;;;1.58;0.50;;;;;;;24.86;40.44;97163.03;5094132;28;20024;-47
2022/09/28 11:55:39;;;;;;;1.58;0.60;;;;;;;25.87;38.85;97150.16;5094088;28;20031;-47
2022/09/28 11:58:45;;;;;;;2.05;0.90;;;;;;;26.17;37.95;97150.66;5092749;28;20152;-47
2022/09/28 12:01:34;;;;;;;2.20;0.60;;;;;;;26.16;36.63;97137.56;5031594;28;20038;-47
2022/09/28 12:04:14;;;;;;;2.33;0.93;;;;;;;25.67;37.81;97139.19;5030306;28;20538;-46
2022/09/28 12:07:14;;;;;;;1.58;0.70;;;;;;;25.66;37.20;97136.84;5031533;28;20033;-47
2022/09/28 12:10:18;;;;;;;1.90;0.63;;;;;;;25.29;38.92;97116.16;5010481;28;20041;-47
2022/09/28 12:12:55;;;;;;;2.58;0.50;;;;;;;25.47;37.55;97110.53;5019825;28;20076;-46
2022/09/28 12:15:26;;;;;;;4.55;0.82;;;;;;;24.98;38.20;97124.69;5030987;28;20049;-46
2022/09/28 12:17:59;;;;;;;1.40;0.65;;;;;;;24.92;38.51;97126.03;5031344;28;20026;-45
2022/09/28 12:20:48;;;;;;;3.70;0.75;;;;;;;24.99;38.70;97138.91;5014674;28;20564;-46
2022/09/28 12:23:40;;;;;;;6.82;0.63;;;;;;;24.68;39.29;97114.13;5030763;28;20049;-47